Meteo Giornale » Osservazioni meteo Nuova Zelanda » Christchurch
ore: 17:00 - Osservazioni Meteo Christchurch
Lat. 43° 29' S Lon. 172° 33' E Alt. 38 metri s.l.m.
11 °C
Sereno
Temp. 24 Ore
0 °C
13 °C
Nord-Est
18.5 Km/h
Dew point 2 °C
Umidità 53 %
Visibilità 10 Km
Il sole sorge alle ore 06:57
Il sole tramonta alle ore 18:02
| Data e Ora | Cielo e Fenomeni | T °C | DP °C | Um. % | Pres. hPa | Vis. km | Vento km/h | |
|---|---|---|---|---|---|---|---|---|
| Oggi h: 17:00 | Sereno | 11 | 2 | 53 | 1006 | 10 | NE 18.5 | |
| Oggi h: 16:30 | Sereno | 11 | 1 | 50 | 1006 | 10 | NE 20.3 | |
| Oggi h: 16:00 | Sereno | 13 | 3 | 50 | 1007 | 10 | NE 18.5 | |
| Oggi h: 15:30 | Sereno | 13 | 2 | 47 | 1007 | 10 | NE 16.7 | |
| Oggi h: 15:00 | Sereno | 13 | 0 | 40 | 1007 | 10 | N/NE 13 | |
| Oggi h: 14:30 | Sereno | 13 | 1 | 43 | 1007 | 10 | N/NE 16.7 | |
| Oggi h: 14:00 | Sereno | 13 | -2 | 35 | 1007 | 10 | E/NE 7.4 | |
| Oggi h: 13:30 | Sereno | 13 | -2 | 35 | 1008 | 10 | N 5.5 | |
| Oggi h: 13:00 | Sereno | 13 | -1 | 37 | 1009 | 10 | N 5.5 | |
| Oggi h: 12:30 | Sereno | 12 | 0 | 43 | 1009 | 10 | N 5.5 | |
| Oggi h: 12:00 | Sereno | 11 | -1 | 43 | 1009 | 10 | N 5.5 | |
| Oggi h: 11:30 | Sereno | 11 | -2 | 40 | 1010 | 10 | N 3.7 | |
| Oggi h: 11:00 | Sereno | 10 | -3 | 39 | 1010 | 10 | N 5.5 | |
| Oggi h: 10:30 | Sereno | 9 | -4 | 39 | 1010 | 10 | S/SO 9.3 | |
| Oggi h: 10:00 | Sereno | 9 | -1 | 49 | 1011 | 10 | O 9.3 | |
| Oggi h: 09:30 | Sereno | 8 | 0 | 56 | 1010 | 10 | O/NO 9.3 | |
| Oggi h: 09:00 | Sereno | 6 | -2 | 56 | 1010 | 10 | O 7.4 | |
| Oggi h: 08:30 | Sereno | 3 | -1 | 74 | 1010 | 10 | S/SO 7.4 | |
| Oggi h: 08:00 | Sereno | 2 | -2 | 74 | 1010 | 10 | N 1.8 | |
| Oggi h: 07:30 | Sereno | 1 | -3 | 74 | 1009 | 10 | O/NO 9.3 | |
| Oggi h: 07:00 | Sereno | 2 | -3 | 69 | 1009 | 10 | O 11.1 | |
| Oggi h: 06:30 | Sereno | 1 | -2 | 80 | 1008 | 10 | O 11.1 | |
| Oggi h: 06:00 | Sereno | 1 | -2 | 80 | 1008 | 10 | O 11.1 | |
| Oggi h: 05:30 | Sereno | 0 | -3 | 80 | 1008 | 10 | SO 7.4 | |
| Oggi h: 05:00 | Sereno | 0 | -2 | 86 | 1007 | 10 | O/NO 9.3 | |
| Oggi h: 04:30 | Sereno | 0 | -2 | 86 | 1007 | 10 | N 5.5 | |
| Oggi h: 04:00 | Sereno | 1 | -1 | 86 | 1007 | 10 | N 3.7 | |
| Oggi h: 03:30 | Sereno | 1 | -1 | 86 | 1006 | 10 | S/SE 9.3 | |
| Oggi h: 03:00 | Sereno | 2 | 0 | 86 | 1006 | 10 | O 13 | |
| Oggi h: 02:30 | Sereno | 1 | 0 | 93 | 1006 | 10 | O 11.1 | |
| Oggi h: 02:00 | Sereno | 1 | -1 | 86 | 1006 | 10 | O 9.3 | |
| Oggi h: 01:30 | Sereno | 0 | -1 | 92 | 1006 | 10 | N 3.7 | |
| Oggi h: 01:00 | Sereno | 2 | 0 | 86 | 1005 | 10 | O/NO 11.1 | |
| Oggi h: 00:30 | Sereno | 2 | 0 | 86 | 1005 | 10 | O/NO 11.1 | |
| Oggi h: 00:00 | Sereno | 3 | 0 | 80 | 1005 | 10 | O/NO 11.1 | |
| Ieri h: 23:30 | Sereno | 2 | 0 | 86 | 1005 | 10 | O/NO 13 | |
| Ieri h: 23:00 | Sereno | 3 | 0 | 80 | 1005 | 10 | O/NO 11.1 | |
| Ieri h: 22:30 | Sereno | 3 | 1 | 86 | 1004 | 10 | O 7.4 | |
| Ieri h: 22:00 | Sereno | 4 | 1 | 80 | 1004 | 10 | O 11.1 | |
| Ieri h: 21:30 | Nuvoloso | 5 | 1 | 75 | 1004 | 10 | O 13 | |
| Ieri h: 21:00 | Sereno | 5 | 0 | 70 | 1004 | 10 | O 16.7 | |
| Ieri h: 20:30 | Sereno | 5 | 0 | 70 | 1003 | 10 | O 14.8 | |
| Ieri h: 20:00 | Nuvoloso | 6 | 0 | 65 | 1003 | 10 | O/SO 20.3 | |
| Ieri h: 19:30 | Pioggia | 6 | 0 | 65 | 1002 | 10 | SO 24 | |
| Ieri h: 19:00 | Pioggia | 6 | 1 | 70 | 1002 | 10 | SO 38.8 | |
| Ieri h: 18:30 | Pioggia | 6 | 3 | 81 | 1001 | 8 | SO 35.2 | |
| Ieri h: 18:00 | Pioggia | 6 | 3 | 81 | 1000 | 10 | O 14.8 | |



